Time,TemperatureF,DewpointF,PressureIn,WindDirection,WindDirectionDegrees,WindSpeedMPH,WindSpeedGustMPH,Humidity,HourlyPrecipIn,Conditions,Clouds,dailyrainin,SoftwareType,DateUTC
2013-04-01 00:00:00,42.6,40.7,29.66,West,275,0.0,3.1,93,0.00,,-RA,0.08,VWS V13.00,2013-04-01 04:00:00,
2013-04-01 00:01:00,42.6,40.7,29.66,West,275,2.2,2.7,93,0.00,,-RA,0.00,VWS V13.00,2013-04-01 04:01:00,
2013-04-01 00:06:00,42.6,40.7,29.66,West,275,0.0,2.7,93,0.00,,-RA,0.00,VWS V13.00,2013-04-01 04:06:00,
2013-04-01 00:11:00,42.6,41.0,29.66,West,275,0.0,2.7,94,0.00,,-RA,0.00,VWS V13.00,2013-04-01 04:11:00,
2013-04-01 00:12:00,42.6,41.0,29.66,West,275,0.0,2.7,94,0.00,,-RA,0.00,VWS V13.00,2013-04-01 04:12:00,
2013-04-01 00:17:00,42.6,41.0,29.66,West,275,0.0,3.1,94,0.00,,-RA,0.00,VWS V13.00,2013-04-01 04:17:00,
2013-04-01 00:22:00,42.6,41.0,29.66,West,261,2.7,3.1,94,0.00,,-RA,0.00,VWS V13.00,2013-04-01 04:22:00,
2013-04-01 00:27:00,42.6,41.0,29.66,West,261,0.0,3.1,94,0.00,,-RA,0.00,VWS V13.00,2013-04-01 04:27:00,
2013-04-01 00:32:00,42.6,41.0,29.66,WSW,257,3.6,5.8,94,0.00,,,0.00,VWS V13.00,2013-04-01 04:32:00,
2013-04-01 00:38:00,42.6,41.0,29.66,SSW,212,2.2,5.8,94,0.00,,,0.00,VWS V13.00,2013-04-01 04:38:00,
2013-04-01 00:43:00,42.6,41.0,29.66,WSW,249,3.1,3.6,94,0.00,,,0.00,VWS V13.00,2013-04-01 04:43:00,
2013-04-01 00:48:00,42.6,41.0,29.66,WSW,253,0.0,5.4,94,0.00,,,0.00,VWS V13.00,2013-04-01 04:48:00,
2013-04-01 00:53:00,42.6,41.0,29.66,WSW,247,0.0,5.4,94,0.00,,,0.00,VWS V13.00,2013-04-01 04:53:00,
2013-04-01 00:58:00,42.6,41.0,29.66,WSW,247,2.2,5.4,94,0.00,,,0.00,VWS V13.00,2013-04-01 04:58:00,
2013-04-01 01:03:00,42.6,41.0,29.66,WSW,247,2.2,2.7,94,0.00,,,0.00,VWS V13.00,2013-04-01 05:03:00,
2013-04-01 01:08:00,42.6,41.0,29.66,WSW,247,2.7,3.6,94,0.00,,,0.00,VWS V13.00,2013-04-01 05:08:00,
2013-04-01 01:13:00,42.6,41.0,29.66,SSW,213,2.2,3.6,94,0.00,,,0.00,VWS V13.00,2013-04-01 05:13:00,
2013-04-01 01:18:00,42.6,41.0,29.66,West,267,2.7,6.3,94,0.00,,,0.00,VWS V13.00,2013-04-01 05:18:00,
2013-04-01 01:23:00,42.6,41.0,29.66,SW,216,0.0,3.6,94,0.00,,,0.00,VWS V13.00,2013-04-01 05:23:00,
2013-04-01 01:28:00,42.6,41.3,29.66,SW,216,0.0,3.6,95,0.00,,,0.00,VWS V13.00,2013-04-01 05:28:00,
2013-04-01 01:33:00,42.6,41.3,29.66,West,277,0.0,5.8,95,0.00,,,0.00,VWS V13.00,2013-04-01 05:33:00,
2013-04-01 01:38:00,42.6,41.3,29.66,West,276,0.0,5.8,95,0.00,,,0.00,VWS V13.00,2013-04-01 05:38:00,
2013-04-01 01:43:00,42.6,41.3,29.63,West,261,2.2,4.0,95,0.00,,,0.00,VWS V13.00,2013-04-01 05:43:00,
2013-04-01 01:48:00,42.4,41.1,29.63,WSW,250,0.0,7.6,95,0.00,,,0.00,VWS V13.00,2013-04-01 05:48:00,
2013-04-01 01:53:00,42.4,41.1,29.63,WSW,250,0.0,7.6,95,0.00,,,0.00,VWS V13.00,2013-04-01 05:53:00,
2013-04-01 01:58:00,42.4,41.1,29.63,WSW,250,0.0,7.6,95,0.00,,,0.00,VWS V13.00,2013-04-01 05:58:00,
2013-04-01 02:04:00,42.4,41.1,29.63,WSW,250,0.0,4.9,95,0.00,,,0.00,VWS V13.00,2013-04-01 06:04:00,
2013-04-01 02:09:00,42.4,41.1,29.63,West,267,2.2,5.4,95,0.00,,,0.00,VWS V13.00,2013-04-01 06:09:00,
2013-04-01 02:14:00,42.4,41.1,29.63,SW,217,3.6,5.4,95,0.00,,,0.00,VWS V13.00,2013-04-01 06:14:00,
2013-04-01 02:19:00,42.3,40.9,29.63,SW,214,4.9,5.4,95,0.00,,,0.00,VWS V13.00,2013-04-01 06:19:00,
2013-04-01 02:24:00,42.1,40.8,29.63,WSW,246,0.0,3.6,95,0.00,,,0.00,VWS V13.00,2013-04-01 06:24:00,
2013-04-01 02:29:00,42.1,40.8,29.66,WSW,246,0.0,3.6,95,0.00,,,0.00,VWS V13.00,2013-04-01 06:29:00,
2013-04-01 02:34:00,42.1,40.8,29.66,SW,224,4.0,5.8,95,0.00,,,0.00,VWS V13.00,2013-04-01 06:34:00,
2013-04-01 02:39:00,42.3,40.9,29.66,SW,218,3.6,6.3,95,0.00,,,0.00,VWS V13.00,2013-04-01 06:39:00,
2013-04-01 02:44:00,42.3,40.9,29.66,WSW,238,4.0,6.3,95,0.00,,,0.00,VWS V13.00,2013-04-01 06:44:00,
2013-04-01 02:49:00,42.3,40.9,29.66,SW,221,2.7,8.3,95,0.00,,,0.00,VWS V13.00,2013-04-01 06:49:00,
2013-04-01 02:54:00,42.3,40.9,29.66,SW,235,4.0,8.3,95,0.00,,,0.00,VWS V13.00,2013-04-01 06:54:00,
2013-04-01 02:59:00,42.3,40.9,29.66,SW,224,7.6,8.3,95,0.00,,,0.00,VWS V13.00,2013-04-01 06:59:00,
2013-04-01 03:04:00,42.3,41.2,29.66,WSW,258,4.0,8.3,96,0.00,,,0.00,VWS V13.00,2013-04-01 07:04:00,
2013-04-01 03:09:00,42.1,41.0,29.66,SW,216,4.9,8.3,96,0.00,,,0.00,VWS V13.00,2013-04-01 07:09:00,
2013-04-01 03:14:00,42.1,41.0,29.66,SSW,210,4.0,8.3,96,0.00,,,0.00,VWS V13.00,2013-04-01 07:14:00,
2013-04-01 03:20:00,41.9,40.8,29.66,WSW,256,4.0,8.3,96,0.00,,,0.00,VWS V13.00,2013-04-01 07:20:00,
2013-04-01 03:25:00,42.1,41.0,29.66,WSW,252,4.0,6.7,96,0.00,,,0.00,VWS V13.00,2013-04-01 07:25:00,
2013-04-01 03:30:00,42.1,41.0,29.66,SW,221,3.1,6.7,96,0.00,,,0.00,VWS V13.00,2013-04-01 07:30:00,
2013-04-01 03:35:00,42.3,41.2,29.66,SSW,208,3.6,6.7,96,0.00,,OVC018,0.00,VWS V13.00,2013-04-01 07:35:00,
2013-04-01 03:40:00,42.4,41.4,29.66,WNW,294,3.6,6.7,96,0.00,,OVC018,0.00,VWS V13.00,2013-04-01 07:40:00,
2013-04-01 03:45:00,42.4,41.4,29.66,SSW,198,6.3,8.1,96,0.00,,OVC018,0.00,VWS V13.00,2013-04-01 07:45:00,
2013-04-01 03:50:00,42.6,41.6,29.66,SW,225,3.6,8.1,96,0.00,,OVC018,0.00,VWS V13.00,2013-04-01 07:50:00,
2013-04-01 03:55:00,42.6,41.6,29.66,SW,215,3.6,8.3,96,0.00,,OVC018,0.00,VWS V13.00,2013-04-01 07:55:00,
2013-04-01 04:00:00,42.6,41.6,29.66,SW,216,4.0,8.3,96,0.00,,OVC018,0.00,VWS V13.00,2013-04-01 08:00:00,
2013-04-01 04:05:00,42.6,41.6,29.66,WSW,244,3.1,8.1,96,0.00,,OVC018,0.00,VWS V13.00,2013-04-01 08:05:00,
2013-04-01 04:10:00,42.8,41.7,29.66,SW,223,5.4,10.5,96,0.00,,OVC018,0.00,VWS V13.00,2013-04-01 08:10:00,
2013-04-01 04:15:00,42.6,41.6,29.66,SW,214,4.9,10.5,96,0.00,,OVC018,0.00,VWS V13.00,2013-04-01 08:15:00,
2013-04-01 04:20:00,42.8,41.7,29.66,WSW,242,7.6,10.5,96,0.00,,OVC018,0.00,VWS V13.00,2013-04-01 08:20:00,
2013-04-01 04:25:00,42.6,41.6,29.66,SW,218,2.2,7.6,96,0.00,,OVC018,0.00,VWS V13.00,2013-04-01 08:25:00,
2013-04-01 04:30:00,42.8,41.7,29.66,SW,224,4.0,7.6,96,0.00,,OVC018,0.00,VWS V13.00,2013-04-01 08:30:00,
2013-04-01 04:35:00,42.8,41.7,29.66,SSW,202,4.0,8.7,96,0.00,,OVC004,0.00,VWS V13.00,2013-04-01 08:35:00,
2013-04-01 04:40:00,42.8,41.7,29.66,WSW,252,2.7,2.7,96,0.00,,OVC004,0.00,VWS V13.00,2013-04-01 08:40:00,
2013-04-01 04:45:00,42.8,41.7,29.66,SW,223,3.1,8.1,96,0.00,,OVC004,0.00,VWS V13.00,2013-04-01 08:45:00,
2013-04-01 04:50:00,42.8,41.7,29.66,SW,217,4.0,12.8,96,0.00,,OVC004,0.00,VWS V13.00,2013-04-01 08:50:00,
2013-04-01 04:56:00,42.8,41.7,29.66,SW,223,3.6,12.8,96,0.00,,OVC004,0.00,VWS V13.00,2013-04-01 08:56:00,
2013-04-01 05:01:00,42.6,41.8,29.66,SW,218,5.4,5.4,97,0.00,,OVC004,0.00,VWS V13.00,2013-04-01 09:01:00,
2013-04-01 05:06:00,42.6,41.8,29.66,SSW,205,3.6,6.7,97,0.00,,OVC004,0.00,VWS V13.00,2013-04-01 09:06:00,
2013-04-01 05:11:00,42.6,41.8,29.66,WSW,250,8.1,8.1,97,0.00,,OVC004,0.00,VWS V13.00,2013-04-01 09:11:00,
2013-04-01 05:16:00,42.4,41.4,29.66,SW,225,3.6,8.7,96,0.00,,OVC004,0.00,VWS V13.00,2013-04-01 09:16:00,
2013-04-01 05:21:00,42.4,41.4,29.66,SW,231,4.0,5.4,96,0.00,,OVC004,0.00,VWS V13.00,2013-04-01 09:21:00,
2013-04-01 05:26:00,42.6,41.6,29.66,SSW,200,5.4,7.6,96,0.00,,OVC004,0.00,VWS V13.00,2013-04-01 09:26:00,
2013-04-01 05:32:00,42.4,41.4,29.66,West,264,4.9,7.6,96,0.00,,OVC004,0.00,VWS V13.00,2013-04-01 09:32:00,
2013-04-01 05:37:00,42.4,41.4,29.66,SW,229,3.1,7.6,96,0.00,,OVC006,0.00,VWS V13.00,2013-04-01 09:37:00,
2013-04-01 05:42:00,42.3,41.2,29.66,SW,229,4.0,4.0,96,0.00,,OVC006,0.00,VWS V13.00,2013-04-01 09:42:00,
2013-04-01 05:47:00,42.3,41.2,29.66,SW,216,3.6,7.6,96,0.00,,OVC006,0.00,VWS V13.00,2013-04-01 09:47:00,
2013-04-01 05:52:00,42.1,41.0,29.66,SW,217,0.0,7.6,96,0.00,,OVC006,0.00,VWS V13.00,2013-04-01 09:52:00,
2013-04-01 05:57:00,41.9,40.8,29.66,SW,227,4.0,7.6,96,0.00,,OVC006,0.00,VWS V13.00,2013-04-01 09:57:00,
2013-04-01 06:02:00,41.7,40.7,29.66,SW,215,0.0,4.0,96,0.00,,OVC006,0.00,VWS V13.00,2013-04-01 10:02:00,
2013-04-01 06:07:00,41.5,40.5,29.66,SW,215,2.7,4.0,96,0.00,,OVC006,0.00,VWS V13.00,2013-04-01 10:07:00,
2013-04-01 06:12:00,41.4,40.3,29.66,WSW,247,0.0,4.0,96,0.00,,OVC006,0.00,VWS V13.00,2013-04-01 10:12:00,
2013-04-01 06:17:00,41.4,40.3,29.66,SW,226,0.0,5.8,96,0.00,,OVC006,0.00,VWS V13.00,2013-04-01 10:17:00,
2013-04-01 06:22:00,41.2,40.1,29.66,SW,226,0.0,3.1,96,0.00,,OVC006,0.00,VWS V13.00,2013-04-01 10:22:00,
2013-04-01 06:27:00,41.0,40.0,29.66,SSW,211,2.7,4.0,96,0.00,,OVC006,0.00,VWS V13.00,2013-04-01 10:27:00,
2013-04-01 06:33:00,40.8,39.8,29.66,SSW,209,2.7,4.9,96,0.00,,OVC006,0.00,VWS V13.00,2013-04-01 10:33:00,
2013-04-01 06:39:00,40.6,39.6,29.66,SSW,209,4.0,4.9,96,0.00,,OVC006,0.00,VWS V13.00,2013-04-01 10:39:00,
2013-04-01 06:44:00,40.5,39.4,29.66,SSW,209,0.0,4.0,96,0.00,,OVC006,0.00,VWS V13.00,2013-04-01 10:44:00,
2013-04-01 06:49:00,40.5,39.4,29.66,SW,220,4.0,4.0,96,0.00,,OVC006,0.00,VWS V13.00,2013-04-01 10:49:00,
2013-04-01 06:54:00,40.6,39.6,29.66,SW,225,4.9,6.3,96,0.00,,OVC006,0.00,VWS V13.00,2013-04-01 10:54:00,
2013-04-01 06:59:00,41.0,40.0,29.66,SW,222,3.1,6.3,96,0.00,,OVC006,0.00,VWS V13.00,2013-04-01 10:59:00,
2013-04-01 07:04:00,41.4,40.3,29.66,SW,233,3.1,5.8,96,0.00,,OVC006,0.00,VWS V13.00,2013-04-01 11:04:00,
2013-04-01 07:09:00,41.5,40.5,29.66,SW,231,6.3,6.7,96,0.00,,OVC006,0.00,VWS V13.00,2013-04-01 11:09:00,
2013-04-01 07:14:00,41.7,40.7,29.66,WSW,250,5.8,6.7,96,0.00,,OVC006,0.00,VWS V13.00,2013-04-01 11:14:00,
2013-04-01 07:19:00,41.7,40.7,29.66,SW,216,8.1,9.6,96,0.00,,OVC006,0.00,VWS V13.00,2013-04-01 11:19:00,
2013-04-01 07:24:00,41.9,40.8,29.66,SW,223,3.6,5.8,96,0.00,,OVC006,0.00,VWS V13.00,2013-04-01 11:24:00,
2013-04-01 07:29:00,41.9,41.1,29.66,WSW,257,5.8,7.2,97,0.00,,OVC006,0.00,VWS V13.00,2013-04-01 11:29:00,
2013-04-01 07:34:00,42.1,41.3,29.66,SW,231,5.8,10.1,97,0.00,,,0.00,VWS V13.00,2013-04-01 11:34:00,
2013-04-01 07:39:00,42.1,41.3,29.66,SSW,208,5.8,10.1,97,0.00,,,0.00,VWS V13.00,2013-04-01 11:39:00,
2013-04-01 07:44:00,42.3,41.5,29.66,West,275,3.6,8.3,97,0.00,,,0.00,VWS V13.00,2013-04-01 11:44:00,
2013-04-01 07:50:00,42.3,41.5,29.66,SSW,210,4.9,8.3,97,0.00,,,0.00,VWS V13.00,2013-04-01 11:50:00,
2013-04-01 07:55:00,42.4,41.7,29.66,SSW,212,3.1,8.3,97,0.00,,,0.00,VWS V13.00,2013-04-01 11:55:00,
2013-04-01 08:00:00,42.4,41.7,29.66,SW,220,2.7,8.3,97,0.00,,,0.00,VWS V13.00,2013-04-01 12:00:00,
2013-04-01 08:05:00,42.6,41.8,29.66,WSW,250,4.5,6.3,97,0.00,,,0.00,VWS V13.00,2013-04-01 12:05:00,
2013-04-01 08:10:00,42.8,42.0,29.66,SW,230,4.0,6.3,97,0.00,,,0.00,VWS V13.00,2013-04-01 12:10:00,
2013-04-01 08:15:00,42.8,42.0,29.66,SW,233,7.6,8.3,97,0.00,,,0.00,VWS V13.00,2013-04-01 12:15:00,
2013-04-01 08:20:00,43.2,42.4,29.66,SSW,212,3.6,8.3,97,0.00,,,0.00,VWS V13.00,2013-04-01 12:20:00,
2013-04-01 08:25:00,43.9,43.1,29.66,SSW,211,5.4,5.4,97,0.00,,,0.00,VWS V13.00,2013-04-01 12:25:00,
2013-04-01 08:30:00,44.2,43.4,29.66,SW,229,6.7,6.7,97,0.00,,,0.00,VWS V13.00,2013-04-01 12:30:00,
2013-04-01 08:35:00,44.6,43.5,29.66,SSW,193,4.0,6.7,96,0.00,,,0.00,VWS V13.00,2013-04-01 12:35:00,
2013-04-01 08:40:00,45.1,44.1,29.66,SW,219,7.6,7.6,96,0.00,,,0.00,VWS V13.00,2013-04-01 12:40:00,
2013-04-01 08:45:00,45.9,44.8,29.66,SSW,201,5.8,7.6,96,0.00,,,0.00,VWS V13.00,2013-04-01 12:45:00,
2013-04-01 08:50:00,47.3,45.9,29.66,West,267,4.0,7.6,95,0.00,,,0.00,VWS V13.00,2013-04-01 12:50:00,
2013-04-01 08:55:00,47.8,46.5,29.66,SSW,208,2.7,7.6,95,0.00,,,0.00,VWS V13.00,2013-04-01 12:55:00,
2013-04-01 09:00:00,47.7,46.3,29.63,SW,223,4.0,7.6,95,0.00,,,0.00,VWS V13.00,2013-04-01 13:00:00,
2013-04-01 09:05:00,47.5,45.8,29.63,SW,214,6.3,8.7,94,0.00,,,0.00,VWS V13.00,2013-04-01 13:05:00,
2013-04-01 09:10:00,47.3,45.4,29.63,WSW,246,5.4,8.7,93,0.00,,,0.00,VWS V13.00,2013-04-01 13:10:00,
2013-04-01 09:15:00,47.5,45.6,29.66,WSW,247,3.6,8.7,93,0.00,,,0.00,VWS V13.00,2013-04-01 13:15:00,
2013-04-01 09:21:00,47.5,45.3,29.66,West,263,7.6,7.6,92,0.00,,,0.00,VWS V13.00,2013-04-01 13:21:00,
2013-04-01 09:26:00,47.7,45.2,29.66,SSW,210,5.8,8.7,91,0.00,,,0.00,VWS V13.00,2013-04-01 13:26:00,
2013-04-01 09:31:00,47.7,44.6,29.66,SW,216,4.0,8.7,89,0.00,,,0.00,VWS V13.00,2013-04-01 13:31:00,
2013-04-01 09:36:00,47.7,44.3,29.66,WSW,253,3.6,8.7,88,0.00,,,0.00,VWS V13.00,2013-04-01 13:36:00,
2013-04-01 09:41:00,47.8,44.2,29.66,SW,224,4.0,6.3,87,0.00,,,0.00,VWS V13.00,2013-04-01 13:41:00,
2013-04-01 09:47:00,47.8,43.9,29.66,SW,226,5.8,8.1,86,0.00,,,0.00,VWS V13.00,2013-04-01 13:47:00,
2013-04-01 09:52:00,48.2,43.9,29.66,SSW,195,4.0,8.1,85,0.00,,,0.00,VWS V13.00,2013-04-01 13:52:00,
2013-04-01 09:57:00,48.6,44.0,29.66,SW,225,4.0,8.3,84,0.00,,,0.00,VWS V13.00,2013-04-01 13:57:00,
2013-04-01 10:02:00,48.7,43.8,29.66,SW,224,4.9,7.2,83,0.00,,,0.00,VWS V13.00,2013-04-01 14:02:00,
2013-04-01 10:07:00,48.7,43.5,29.66,SW,222,5.8,8.7,82,0.00,,,0.00,VWS V13.00,2013-04-01 14:07:00,
2013-04-01 10:12:00,48.9,43.7,29.66,SW,226,5.4,8.7,82,0.00,,,0.00,VWS V13.00,2013-04-01 14:12:00,
2013-04-01 10:17:00,49.3,43.7,29.63,SW,216,3.1,8.7,81,0.00,,,0.00,VWS V13.00,2013-04-01 14:17:00,
2013-04-01 10:22:00,50.2,43.9,29.63,WSW,241,4.9,8.7,79,0.00,,,0.00,VWS V13.00,2013-04-01 14:22:00,
2013-04-01 10:28:00,51.4,44.8,29.63,SW,225,6.3,8.7,78,0.00,,,0.00,VWS V13.00,2013-04-01 14:28:00,
2013-04-01 10:33:00,52.2,45.2,29.63,SSW,209,5.4,8.7,77,0.00,,,0.00,VWS V13.00,2013-04-01 14:33:00,
2013-04-01 10:38:00,52.5,44.5,29.63,SSW,195,5.4,8.7,74,0.00,,,0.00,VWS V13.00,2013-04-01 14:38:00,
2013-04-01 10:43:00,53.1,44.7,29.63,SW,220,12.3,12.3,73,0.00,,,0.00,VWS V13.00,2013-04-01 14:43:00,
2013-04-01 10:48:00,53.2,44.1,29.63,WSW,245,8.3,12.3,71,0.00,,,0.00,VWS V13.00,2013-04-01 14:48:00,
2013-04-01 10:53:00,54.0,44.0,29.63,SW,231,11.0,12.3,69,0.00,,,0.00,VWS V13.00,2013-04-01 14:53:00,
2013-04-01 10:58:00,54.5,44.2,29.63,SW,231,8.1,12.3,68,0.00,,,0.00,VWS V13.00,2013-04-01 14:58:00,
2013-04-01 11:03:00,55.2,44.5,29.63,SW,235,3.6,7.2,67,0.00,,,0.00,VWS V13.00,2013-04-01 15:03:00,
2013-04-01 11:08:00,55.9,44.4,29.63,SSW,195,8.3,10.5,65,0.00,,,0.00,VWS V13.00,2013-04-01 15:08:00,
2013-04-01 11:13:00,56.7,44.6,29.63,SW,229,4.0,10.5,64,0.00,,,0.00,VWS V13.00,2013-04-01 15:13:00,
2013-04-01 11:18:00,57.0,44.6,29.63,West,273,5.4,10.5,63,0.00,,,0.00,VWS V13.00,2013-04-01 15:18:00,
2013-04-01 11:23:00,57.2,43.0,29.63,SW,216,10.5,13.2,59,0.00,,,0.00,VWS V13.00,2013-04-01 15:23:00,
2013-04-01 11:29:00,57.4,41.8,29.63,SSW,203,10.5,13.2,56,0.00,,,0.00,VWS V13.00,2013-04-01 15:29:00,
2013-04-01 11:34:00,57.2,40.2,29.63,West,260,9.6,13.2,53,0.00,,CLR,0.00,VWS V13.00,2013-04-01 15:34:00,
2013-04-01 11:39:00,56.8,40.4,29.63,WSW,252,10.1,13.2,54,0.00,,CLR,0.00,VWS V13.00,2013-04-01 15:39:00,
2013-04-01 11:44:00,57.6,40.6,29.63,West,273,2.7,10.1,53,0.00,,CLR,0.00,VWS V13.00,2013-04-01 15:44:00,
2013-04-01 11:49:00,58.5,40.9,29.63,SW,216,11.9,11.9,52,0.00,,CLR,0.00,VWS V13.00,2013-04-01 15:49:00,
2013-04-01 11:54:00,58.3,39.7,29.63,SSW,202,5.8,15.4,50,0.00,,CLR,0.00,VWS V13.00,2013-04-01 15:54:00,
2013-04-01 11:59:00,58.5,39.4,29.63,WNW,303,4.5,15.4,49,0.00,,CLR,0.00,VWS V13.00,2013-04-01 15:59:00,
2013-04-01 12:04:00,58.5,39.4,29.63,WSW,239,11.0,11.0,49,0.00,,CLR,0.00,VWS V13.00,2013-04-01 16:04:00,
2013-04-01 12:09:00,58.6,39.0,29.63,South,185,7.6,11.0,48,0.00,,CLR,0.00,VWS V13.00,2013-04-01 16:09:00,
2013-04-01 12:14:00,59.2,38.4,29.63,West,280,8.1,14.5,46,0.00,,CLR,0.00,VWS V13.00,2013-04-01 16:14:00,
2013-04-01 12:19:00,58.6,38.5,29.63,South,191,4.0,14.5,47,0.00,,CLR,0.00,VWS V13.00,2013-04-01 16:19:00,
2013-04-01 12:24:00,57.9,37.3,29.63,West,271,7.6,11.4,46,0.00,,CLR,0.00,VWS V13.00,2013-04-01 16:24:00,
2013-04-01 12:29:00,57.4,37.3,29.63,WSW,237,8.1,11.4,47,0.00,,CLR,0.00,VWS V13.00,2013-04-01 16:29:00,
2013-04-01 12:34:00,56.8,36.3,29.63,WNW,282,6.3,16.3,46,0.00,,SCT055,0.00,VWS V13.00,2013-04-01 16:34:00,
2013-04-01 12:39:00,57.2,36.6,29.63,SW,231,4.0,16.8,46,0.00,,SCT055,0.00,VWS V13.00,2013-04-01 16:39:00,
2013-04-01 12:44:00,57.2,36.1,29.60,SW,227,3.6,12.3,45,0.00,,SCT055,0.00,VWS V13.00,2013-04-01 16:44:00,
2013-04-01 12:49:00,56.8,36.3,29.60,West,265,5.8,12.3,46,0.00,,SCT055,0.00,VWS V13.00,2013-04-01 16:49:00,
2013-04-01 12:54:00,56.8,35.7,29.60,WSW,238,4.0,12.3,45,0.00,,SCT055,0.00,VWS V13.00,2013-04-01 16:54:00,
2013-04-01 12:59:00,56.5,35.4,29.60,WNW,301,5.8,12.3,45,0.00,,SCT055,0.00,VWS V13.00,2013-04-01 16:59:00,
2013-04-01 13:04:00,56.1,35.1,29.60,SW,231,11.0,13.6,45,0.00,,SCT055,0.00,VWS V13.00,2013-04-01 17:04:00,
2013-04-01 13:09:00,55.6,33.5,29.60,South,172,3.6,22.8,43,0.04,,SCT055,0.04,VWS V13.00,2013-04-01 17:09:00,
2013-04-01 13:15:00,55.2,33.1,29.63,WSW,254,7.6,22.8,43,0.04,,SCT055,0.04,VWS V13.00,2013-04-01 17:15:00,
2013-04-01 13:20:00,55.4,33.3,29.63,SSW,204,5.4,22.8,43,0.04,,SCT055,0.04,VWS V13.00,2013-04-01 17:20:00,
2013-04-01 13:25:00,55.2,33.7,29.63,WNW,294,5.4,14.5,44,0.04,,SCT055,0.04,VWS V13.00,2013-04-01 17:25:00,
2013-04-01 13:30:00,55.2,34.3,29.63,SW,233,0.0,14.5,45,0.04,,SCT055,0.04,VWS V13.00,2013-04-01 17:30:00,
2013-04-01 13:35:00,57.2,35.5,29.63,WNW,303,8.1,19.7,44,0.04,,OVC075,0.04,VWS V13.00,2013-04-01 17:35:00,
2013-04-01 13:40:00,57.9,35.6,29.63,WSW,237,4.0,19.7,43,0.04,,OVC075,0.04,VWS V13.00,2013-04-01 17:40:00,
2013-04-01 13:45:00,57.6,35.2,29.63,SSW,210,4.0,15.9,43,0.04,,OVC075,0.04,VWS V13.00,2013-04-01 17:45:00,
2013-04-01 13:50:00,59.0,36.6,29.63,NW,311,3.6,15.9,43,0.04,,OVC075,0.04,VWS V13.00,2013-04-01 17:50:00,
2013-04-01 13:55:00,58.3,35.3,29.63,WSW,251,12.3,15.9,42,0.04,,OVC075,0.04,VWS V13.00,2013-04-01 17:55:00,
2013-04-01 14:00:00,57.0,34.2,29.63,South,189,4.9,16.8,42,0.04,,OVC075,0.04,VWS V13.00,2013-04-01 18:00:00,
2013-04-01 14:05:00,57.0,34.8,29.63,SW,216,3.6,10.1,43,0.04,,OVC075,0.04,VWS V13.00,2013-04-01 18:05:00,
2013-04-01 14:10:00,56.7,33.8,29.63,SSE,152,6.3,12.8,42,0.04,,OVC075,0.04,VWS V13.00,2013-04-01 18:10:00,
2013-04-01 14:15:00,56.7,33.8,29.63,WSW,250,7.6,12.8,42,0.04,,OVC075,0.04,VWS V13.00,2013-04-01 18:15:00,
2013-04-01 14:20:00,56.3,32.9,29.63,NNW,328,5.8,12.8,41,0.04,,OVC075,0.04,VWS V13.00,2013-04-01 18:20:00,
2013-04-01 14:25:00,55.8,31.8,29.63,SW,231,7.6,13.2,40,0.00,,OVC075,0.04,VWS V13.00,2013-04-01 18:25:00,
2013-04-01 14:30:00,55.6,31.7,29.63,WSW,243,5.8,16.8,40,0.00,,OVC075,0.04,VWS V13.00,2013-04-01 18:30:00,
2013-04-01 14:35:00,55.0,31.8,29.63,WNW,301,6.3,16.8,41,0.00,,OVC070,0.04,VWS V13.00,2013-04-01 18:35:00,
2013-04-01 14:41:00,54.5,32.5,29.63,SW,235,0.0,4.0,43,0.00,,OVC070,0.04,VWS V13.00,2013-04-01 18:41:00,
2013-04-01 14:46:00,53.2,31.9,29.66,West,268,5.4,8.1,44,0.00,,OVC070,0.04,VWS V13.00,2013-04-01 18:46:00,
2013-04-01 14:51:00,51.8,31.7,29.66,WNW,286,3.6,12.8,46,0.00,,OVC070,0.04,VWS V13.00,2013-04-01 18:51:00,
2013-04-01 14:56:00,52.2,32.6,29.66,SSW,206,3.1,12.8,47,0.00,,OVC070,0.04,VWS V13.00,2013-04-01 18:56:00,
2013-04-01 15:01:00,51.8,32.2,29.66,West,259,4.9,6.3,47,0.00,,OVC070,0.04,VWS V13.00,2013-04-01 19:01:00,
2013-04-01 15:06:00,51.8,31.7,29.66,WNW,303,0.0,8.3,46,0.00,,OVC070,0.04,VWS V13.00,2013-04-01 19:06:00,
2013-04-01 15:11:00,51.6,31.5,29.66,SE,145,2.7,13.2,46,0.00,,OVC070,0.04,VWS V13.00,2013-04-01 19:11:00,
2013-04-01 15:17:00,52.3,31.6,29.66,SSW,209,5.4,13.2,45,0.00,,OVC070,0.04,VWS V13.00,2013-04-01 19:17:00,
2013-04-01 15:22:00,52.5,30.1,29.66,WNW,289,9.2,12.8,42,0.00,,OVC070,0.04,VWS V13.00,2013-04-01 19:22:00,
2013-04-01 15:27:00,53.2,30.2,29.66,SSW,192,4.0,13.2,41,0.00,,OVC070,0.04,VWS V13.00,2013-04-01 19:27:00,
2013-04-01 15:32:00,53.8,30.6,29.63,WNW,302,3.1,13.2,41,0.00,,RA,0.04,VWS V13.00,2013-04-01 19:32:00,
2013-04-01 15:37:00,53.1,30.0,29.63,SW,231,3.1,13.2,41,0.00,,RA,0.04,VWS V13.00,2013-04-01 19:37:00,
2013-04-01 15:42:00,51.8,28.3,29.63,South,189,2.7,5.8,40,0.00,,RA,0.04,VWS V13.00,2013-04-01 19:42:00,
2013-04-01 15:47:00,51.4,27.9,29.66,South,172,7.6,10.1,40,0.00,,RA,0.04,VWS V13.00,2013-04-01 19:47:00,
2013-04-01 15:52:00,50.9,27.5,29.66,South,182,5.8,15.4,40,0.00,,RA,0.04,VWS V13.00,2013-04-01 19:52:00,
2013-04-01 15:57:00,50.0,27.2,29.66,NNE,32,0.0,15.4,41,0.00,,RA,0.04,VWS V13.00,2013-04-01 19:57:00,
2013-04-01 16:02:00,48.7,27.8,29.66,ENE,69,3.6,4.5,44,0.00,,RA,0.04,VWS V13.00,2013-04-01 20:02:00,
2013-04-01 16:07:00,48.0,29.3,29.66,North,2,2.7,4.5,48,0.00,,RA,0.04,VWS V13.00,2013-04-01 20:07:00,
2013-04-01 16:12:00,47.3,29.1,29.66,NNE,15,3.1,5.8,49,0.00,,RA,0.04,VWS V13.00,2013-04-01 20:12:00,
2013-04-01 16:17:00,46.9,29.3,29.69,North,357,0.0,5.8,50,0.00,,RA,0.04,VWS V13.00,2013-04-01 20:17:00,
2013-04-01 16:23:00,47.1,29.9,29.69,East,89,0.0,2.7,51,0.00,,RA,0.04,VWS V13.00,2013-04-01 20:23:00,
2013-04-01 16:28:00,46.4,30.2,29.69,North,1,3.1,5.8,53,0.00,,RA,0.04,VWS V13.00,2013-04-01 20:28:00,
2013-04-01 16:33:00,45.9,30.2,29.69,ENE,72,0.0,5.8,54,0.00,,BKN065,0.04,VWS V13.00,2013-04-01 20:33:00,
2013-04-01 16:38:00,46.2,31.0,29.69,ENE,71,0.0,5.8,55,0.00,,BKN065,0.04,VWS V13.00,2013-04-01 20:38:00,
2013-04-01 16:43:00,46.2,31.0,29.66,WNW,296,2.2,3.1,55,0.00,,BKN065,0.04,VWS V13.00,2013-04-01 20:43:00,
2013-04-01 16:48:00,46.4,30.7,29.66,SW,218,0.0,3.6,54,0.00,,BKN065,0.04,VWS V13.00,2013-04-01 20:48:00,
2013-04-01 16:53:00,46.8,30.5,29.66,NNE,31,4.0,4.0,53,0.00,,BKN065,0.04,VWS V13.00,2013-04-01 20:53:00,
2013-04-01 16:58:00,46.6,30.4,29.66,SSW,192,2.7,4.0,53,0.00,,BKN065,0.04,VWS V13.00,2013-04-01 20:58:00,
2013-04-01 17:03:00,46.4,29.8,29.66,SSE,151,0.0,3.6,52,0.00,,BKN065,0.04,VWS V13.00,2013-04-01 21:03:00,
2013-04-01 17:08:00,46.2,29.6,29.66,East,85,3.1,3.6,52,0.00,,BKN065,0.04,VWS V13.00,2013-04-01 21:08:00,
2013-04-01 17:13:00,46.4,29.8,29.66,East,85,0.0,3.6,52,0.00,,BKN065,0.04,VWS V13.00,2013-04-01 21:13:00,
2013-04-01 17:18:00,47.1,30.4,29.66,East,85,0.0,3.6,52,0.00,,BKN065,0.04,VWS V13.00,2013-04-01 21:18:00,
2013-04-01 17:23:00,47.3,29.6,29.66,North,0,4.0,5.4,50,0.00,,BKN065,0.04,VWS V13.00,2013-04-01 21:23:00,
2013-04-01 17:28:00,47.3,29.1,29.66,NNE,23,0.0,5.4,49,0.00,,BKN065,0.04,VWS V13.00,2013-04-01 21:28:00,
2013-04-01 17:33:00,48.0,30.3,29.66,NE,38,3.6,5.4,50,0.00,,FEW070,0.04,VWS V13.00,2013-04-01 21:33:00,
2013-04-01 17:38:00,48.4,29.1,29.66,SSW,205,2.7,8.3,47,0.00,,FEW070,0.04,VWS V13.00,2013-04-01 21:38:00,
2013-04-01 17:43:00,48.6,28.2,29.69,SSW,196,5.8,8.3,45,0.00,,FEW070,0.04,VWS V13.00,2013-04-01 21:43:00,
2013-04-01 17:48:00,48.6,26.0,29.69,SW,225,3.6,14.1,41,0.00,,FEW070,0.04,VWS V13.00,2013-04-01 21:48:00,
2013-04-01 17:54:00,48.9,25.7,29.69,West,280,6.3,14.1,40,0.00,,FEW070,0.04,VWS V13.00,2013-04-01 21:54:00,
2013-04-01 17:59:00,48.9,25.1,29.69,SSW,202,3.1,14.1,39,0.00,,FEW070,0.04,VWS V13.00,2013-04-01 21:59:00,
2013-04-01 18:04:00,48.7,24.3,29.69,SSW,205,4.0,6.3,38,0.00,,FEW070,0.04,VWS V13.00,2013-04-01 22:04:00,
2013-04-01 18:09:00,47.8,23.5,29.69,NW,304,6.3,9.6,38,0.00,,FEW070,0.04,VWS V13.00,2013-04-01 22:09:00,
2013-04-01 18:14:00,47.3,23.0,29.69,ENE,72,0.0,9.6,38,0.00,,FEW070,0.04,VWS V13.00,2013-04-01 22:14:00,
2013-04-01 18:19:00,46.9,22.7,29.69,SW,214,3.1,9.6,38,0.00,,FEW070,0.04,VWS V13.00,2013-04-01 22:19:00,
2013-04-01 18:24:00,46.8,22.5,29.69,WSW,252,5.8,8.3,38,0.00,,FEW070,0.04,VWS V13.00,2013-04-01 22:24:00,
2013-04-01 18:29:00,46.4,21.6,29.69,West,259,10.5,12.3,37,0.00,,FEW070,0.04,VWS V13.00,2013-04-01 22:29:00,
2013-04-01 18:34:00,46.0,21.2,29.69,WSW,253,5.8,16.8,37,0.00,,FEW075,0.04,VWS V13.00,2013-04-01 22:34:00,
2013-04-01 18:39:00,45.5,20.8,29.69,SW,222,7.2,16.8,37,0.00,,FEW075,0.04,VWS V13.00,2013-04-01 22:39:00,
2013-04-01 18:44:00,45.3,20.0,29.69,NNE,20,3.6,10.5,36,0.00,,FEW075,0.04,VWS V13.00,2013-04-01 22:44:00,
2013-04-01 18:49:00,44.8,19.5,29.69,East,79,2.7,10.5,36,0.00,,FEW075,0.04,VWS V13.00,2013-04-01 22:49:00,
2013-04-01 18:54:00,44.8,18.8,29.69,NW,317,2.7,10.5,35,0.00,,FEW075,0.04,VWS V13.00,2013-04-01 22:54:00,
2013-04-01 18:59:00,44.2,19.0,29.72,NNE,20,2.2,10.5,36,0.00,,FEW075,0.04,VWS V13.00,2013-04-01 22:59:00,
2013-04-01 19:04:00,43.9,18.7,29.72,NW,322,2.2,5.8,36,0.00,,FEW075,0.04,VWS V13.00,2013-04-01 23:04:00,
2013-04-01 19:09:00,43.7,18.5,29.72,WSW,250,3.6,8.1,36,0.00,,FEW075,0.04,VWS V13.00,2013-04-01 23:09:00,
2013-04-01 19:14:00,43.5,18.4,29.72,North,8,3.6,8.1,36,0.00,,FEW075,0.04,VWS V13.00,2013-04-01 23:14:00,
2013-04-01 19:19:00,43.3,17.5,29.72,SSW,203,3.1,8.7,35,0.00,,FEW075,0.04,VWS V13.00,2013-04-01 23:19:00,
2013-04-01 19:24:00,43.0,17.2,29.72,WNW,285,2.7,8.3,35,0.00,,FEW075,0.04,VWS V13.00,2013-04-01 23:24:00,
2013-04-01 19:29:00,42.8,17.1,29.72,West,273,2.2,8.3,35,0.00,,FEW075,0.04,VWS V13.00,2013-04-01 23:29:00,
2013-04-01 19:34:00,42.4,17.4,29.72,NE,44,3.6,8.3,36,0.00,,CLR,0.04,VWS V13.00,2013-04-01 23:34:00,
2013-04-01 19:39:00,41.9,16.9,29.72,North,0,4.9,8.3,36,0.00,,CLR,0.04,VWS V13.00,2013-04-01 23:39:00,
2013-04-01 19:44:00,41.5,16.6,29.75,NE,35,3.6,6.3,36,0.00,,CLR,0.04,VWS V13.00,2013-04-01 23:44:00,
2013-04-01 19:49:00,40.8,17.2,29.75,West,276,2.7,6.3,38,0.00,,CLR,0.04,VWS V13.00,2013-04-01 23:49:00,
2013-04-01 19:55:00,40.5,16.3,29.75,North,11,3.6,8.3,37,0.00,,CLR,0.04,VWS V13.00,2013-04-01 23:55:00,
2013-04-01 20:00:00,40.1,16.5,29.75,West,270,3.1,8.3,38,0.00,,CLR,0.04,VWS V13.00,2013-04-02 00:00:00,
2013-04-01 20:05:00,39.7,16.2,29.75,NNW,329,3.6,6.3,38,0.00,,CLR,0.04,VWS V13.00,2013-04-02 00:05:00,
2013-04-01 20:10:00,39.6,16.1,29.75,North,353,0.0,6.3,38,0.00,,CLR,0.04,VWS V13.00,2013-04-02 00:10:00,
2013-04-01 20:15:00,39.4,15.9,29.75,NNW,327,3.1,6.3,38,0.00,,CLR,0.04,VWS V13.00,2013-04-02 00:15:00,
2013-04-01 20:20:00,38.8,16.0,29.75,East,98,4.0,6.3,39,0.00,,CLR,0.04,VWS V13.00,2013-04-02 00:20:00,
2013-04-01 20:25:00,38.5,15.7,29.75,ESE,120,3.1,6.3,39,0.00,,CLR,0.04,VWS V13.00,2013-04-02 00:25:00,
2013-04-01 20:30:00,38.3,15.5,29.78,West,275,0.0,6.3,39,0.00,,CLR,0.04,VWS V13.00,2013-04-02 00:30:00,
2013-04-01 20:35:00,37.8,15.0,29.78,ENE,74,0.0,6.7,39,0.00,,CLR,0.04,VWS V13.00,2013-04-02 00:35:00,
2013-04-01 20:40:00,37.6,14.9,29.78,NE,48,2.2,6.7,39,0.00,,CLR,0.04,VWS V13.00,2013-04-02 00:40:00,
2013-04-01 20:45:00,37.2,14.6,29.78,North,9,4.0,5.8,39,0.00,,CLR,0.04,VWS V13.00,2013-04-02 00:45:00,
2013-04-01 20:50:00,36.9,14.2,29.78,SSW,212,2.7,8.7,39,0.00,,CLR,0.04,VWS V13.00,2013-04-02 00:50:00,
2013-04-01 20:55:00,36.7,14.1,29.78,North,357,2.7,8.7,39,0.00,,CLR,0.04,VWS V13.00,2013-04-02 00:55:00,
2013-04-01 21:00:00,36.7,14.1,29.81,North,2,2.7,8.7,39,0.00,,CLR,0.04,VWS V13.00,2013-04-02 01:00:00,
2013-04-01 21:05:00,36.1,13.6,29.81,SE,125,2.7,5.8,39,0.00,,CLR,0.04,VWS V13.00,2013-04-02 01:05:00,
2013-04-01 21:10:00,36.1,13.0,29.81,SW,225,3.1,5.8,38,0.00,,CLR,0.04,VWS V13.00,2013-04-02 01:10:00,
2013-04-01 21:15:00,35.8,12.7,29.81,North,0,3.6,5.8,38,0.00,,CLR,0.04,VWS V13.00,2013-04-02 01:15:00,
2013-04-01 21:20:00,35.8,12.7,29.81,ESE,104,3.6,5.8,38,0.00,,CLR,0.04,VWS V13.00,2013-04-02 01:20:00,
2013-04-01 21:25:00,35.4,12.4,29.81,NNE,25,2.7,9.2,38,0.00,,CLR,0.04,VWS V13.00,2013-04-02 01:25:00,
2013-04-01 21:30:00,35.1,12.0,29.81,ESE,106,2.7,9.2,38,0.00,,CLR,0.04,VWS V13.00,2013-04-02 01:30:00,
2013-04-01 21:35:00,35.1,12.0,29.81,NW,311,5.8,9.2,38,0.00,,CLR,0.04,VWS V13.00,2013-04-02 01:35:00,
2013-04-01 21:40:00,34.9,11.3,29.81,NE,40,4.0,9.2,37,0.00,,CLR,0.04,VWS V13.00,2013-04-02 01:40:00,
2013-04-01 21:45:00,34.5,10.9,29.84,ENE,65,3.1,5.8,37,0.00,,CLR,0.04,VWS V13.00,2013-04-02 01:45:00,
2013-04-01 21:50:00,34.5,10.9,29.84,West,266,3.1,5.8,37,0.00,,CLR,0.04,VWS V13.00,2013-04-02 01:50:00,
2013-04-01 21:55:00,34.3,10.8,29.84,SE,141,4.0,7.2,37,0.00,,CLR,0.04,VWS V13.00,2013-04-02 01:55:00,
2013-04-01 22:00:00,34.2,10.6,29.84,NE,48,3.1,6.3,37,0.00,,CLR,0.04,VWS V13.00,2013-04-02 02:00:00,
2013-04-01 22:05:00,34.0,10.5,29.84,East,79,3.6,6.3,37,0.00,,CLR,0.04,VWS V13.00,2013-04-02 02:05:00,
2013-04-01 22:10:00,33.6,10.7,29.84,NW,321,0.0,6.3,38,0.00,,CLR,0.04,VWS V13.00,2013-04-02 02:10:00,
2013-04-01 22:16:00,33.3,10.4,29.84,ESE,115,0.0,6.3,38,0.00,,CLR,0.04,VWS V13.00,2013-04-02 02:16:00,
2013-04-01 22:21:00,33.1,10.2,29.84,West,266,0.0,0.0,38,0.00,,CLR,0.04,VWS V13.00,2013-04-02 02:21:00,
2013-04-01 22:26:00,33.1,10.2,29.84,WSW,238,2.7,5.8,38,0.00,,CLR,0.04,VWS V13.00,2013-04-02 02:26:00,
2013-04-01 22:31:00,32.9,10.1,29.84,North,353,3.6,5.8,38,0.00,,CLR,0.04,VWS V13.00,2013-04-02 02:31:00,
2013-04-01 22:36:00,32.7,10.5,29.84,NE,56,2.7,5.8,39,0.00,,CLR,0.04,VWS V13.00,2013-04-02 02:36:00,
2013-04-01 22:41:00,32.7,10.5,29.84,East,85,0.0,3.1,39,0.00,,CLR,0.04,VWS V13.00,2013-04-02 02:41:00,
2013-04-01 22:46:00,32.5,10.4,29.84,SE,139,0.0,4.0,39,0.00,,CLR,0.04,VWS V13.00,2013-04-02 02:46:00,
2013-04-01 22:51:00,32.4,10.2,29.84,SE,138,3.1,4.0,39,0.00,,CLR,0.04,VWS V13.00,2013-04-02 02:51:00,
2013-04-01 22:56:00,32.4,10.2,29.84,NNE,23,2.7,4.0,39,0.00,,CLR,0.04,VWS V13.00,2013-04-02 02:56:00,
2013-04-01 23:01:00,32.2,10.0,29.84,WSW,254,0.0,2.2,39,0.00,,CLR,0.04,VWS V13.00,2013-04-02 03:01:00,
2013-04-01 23:07:00,32.0,9.9,29.84,East,87,0.0,4.9,39,0.00,,CLR,0.04,VWS V13.00,2013-04-02 03:07:00,
2013-04-01 23:12:00,32.0,9.9,29.84,ENE,67,3.6,4.9,39,0.00,,-RA,0.04,VWS V13.00,2013-04-02 03:12:00,
2013-04-01 23:17:00,31.8,10.3,29.87,NE,49,0.0,5.8,40,0.00,,CLR,0.04,VWS V13.00,2013-04-02 03:17:00,
2013-04-01 23:22:00,31.8,10.3,29.87,WSW,255,3.1,3.1,40,0.00,,CLR,0.04,VWS V13.00,2013-04-02 03:22:00,
2013-04-01 23:27:00,31.6,9.5,29.87,NNW,329,2.2,4.0,39,0.00,,CLR,0.04,VWS V13.00,2013-04-02 03:27:00,
2013-04-01 23:32:00,31.3,9.8,29.87,NW,309,0.0,4.0,40,0.00,,CLR,0.04,VWS V13.00,2013-04-02 03:32:00,
2013-04-01 23:37:00,31.1,9.6,29.87,ESE,119,2.2,4.0,40,0.00,,CLR,0.04,VWS V13.00,2013-04-02 03:37:00,
2013-04-01 23:42:00,31.1,9.6,29.87,ESE,104,3.1,4.0,40,0.00,,CLR,0.04,VWS V13.00,2013-04-02 03:42:00,
2013-04-01 23:47:00,30.9,9.4,29.87,WSW,250,0.0,4.9,40,0.00,,CLR,0.04,VWS V13.00,2013-04-02 03:47:00,
2013-04-01 23:52:00,31.1,9.6,29.87,ESE,112,2.7,5.8,40,0.00,,CLR,0.04,VWS V13.00,2013-04-02 03:52:00,
2013-04-01 23:57:00,31.3,9.2,29.87,WNW,289,5.4,10.5,39,0.00,,CLR,0.04,VWS V13.00,2013-04-02 03:57:00,